createdAt,value
2023-01-19T00:03:18.725Z,3.80
2023-01-19T00:07:32.690Z,5.07
2023-01-19T00:11:45.170Z,4.72
2023-01-19T00:15:58.451Z,4.07
2023-01-19T00:20:11.669Z,4.25
2023-01-19T00:24:24.099Z,6.10
2023-01-19T00:28:36.540Z,5.60
2023-01-19T00:32:59.410Z,3.92
2023-01-19T00:37:12.327Z,5.18
2023-01-19T00:41:45.198Z,5.50
2023-01-19T00:45:57.718Z,4.20
2023-01-19T00:50:12.693Z,5.22
2023-01-19T00:54:34.193Z,4.85
2023-01-19T00:58:46.770Z,4.65
2023-01-19T01:02:59.746Z,6.80
2023-01-19T01:07:12.562Z,2.92
2023-01-19T01:11:25.017Z,3.65
2023-01-19T01:15:38.400Z,4.35
2023-01-19T01:19:50.954Z,3.70
2023-01-19T01:24:04.043Z,4.85
2023-01-19T01:28:16.469Z,2.38
2023-01-19T01:32:29.552Z,4.32
2023-01-19T01:36:42.576Z,4.13
2023-01-19T01:40:55.041Z,4.03
2023-01-19T01:45:32.328Z,3.55
2023-01-19T01:49:46.008Z,4.85
2023-01-19T01:54:18.086Z,2.78
2023-01-19T01:58:33.377Z,4.20
2023-01-19T02:02:51.831Z,4.43
2023-01-19T02:07:45.721Z,6.85
2023-01-19T02:12:17.397Z,5.82
2023-01-19T02:16:30.838Z,4.53
2023-01-19T02:21:00.452Z,7.70
2023-01-19T02:25:13.044Z,3.97
2023-01-19T02:29:27.426Z,5.63
2023-01-19T02:33:41.373Z,6.18
2023-01-19T02:37:55.128Z,7.75
2023-01-19T02:42:13.604Z,3.33
2023-01-19T02:46:26.813Z,3.37
2023-01-19T02:50:46.713Z,6.82
2023-01-19T02:55:11.080Z,2.83
2023-01-19T02:59:59.485Z,5.70
2023-01-19T03:04:34.530Z,4.90
2023-01-19T03:09:00.075Z,3.97
2023-01-19T03:13:22.574Z,4.60
2023-01-19T03:17:36.728Z,3.63
2023-01-19T03:21:53.935Z,4.95
2023-01-19T03:26:19.628Z,4.75
2023-01-19T03:30:47.374Z,4.07
2023-01-19T03:35:15.173Z,4.00
2023-01-19T03:39:29.782Z,3.10
2023-01-19T03:43:50.671Z,1.77
2023-01-19T03:48:03.920Z,3.67
2023-01-19T03:52:34.409Z,4.72
2023-01-19T03:56:55.734Z,3.63
2023-01-19T04:01:08.223Z,4.25
2023-01-19T04:05:20.702Z,3.47
2023-01-19T04:09:33.170Z,4.22
2023-01-19T04:13:45.816Z,6.40
2023-01-19T04:17:59.789Z,3.47
2023-01-19T04:22:15.349Z,3.22
2023-01-19T04:26:27.801Z,4.60
2023-01-19T04:30:40.257Z,4.30
2023-01-19T04:34:52.849Z,4.03
2023-01-19T04:39:05.849Z,5.05
2023-01-19T04:43:18.421Z,4.38
2023-01-19T04:47:37.084Z,5.55
2023-01-19T04:51:54.439Z,4.30
2023-01-19T04:56:07.080Z,5.47
2023-01-19T05:00:20.047Z,3.58
2023-01-19T05:04:32.488Z,4.28
2023-01-19T05:08:45.541Z,4.35
2023-01-19T05:12:58.439Z,4.38
2023-01-19T05:17:11.334Z,4.30
2023-01-19T05:21:23.780Z,4.47
2023-01-19T05:25:36.209Z,4.00
2023-01-19T05:29:48.648Z,4.38
2023-01-19T05:34:01.081Z,4.32
2023-01-19T05:38:14.517Z,4.60
2023-01-19T05:42:27.041Z,4.57
2023-01-19T05:46:40.584Z,4.35
2023-01-19T05:50:59.190Z,4.57
2023-01-19T05:55:11.602Z,4.40
2023-01-19T05:59:25.085Z,5.20
2023-01-19T06:03:38.258Z,4.75
2023-01-19T06:08:00.704Z,5.38
2023-01-19T06:12:23.098Z,5.43
2023-01-19T06:16:35.751Z,6.13
2023-01-19T06:20:48.855Z,6.47
2023-01-19T06:25:01.297Z,5.43
2023-01-19T06:29:14.524Z,4.70
2023-01-19T06:33:28.633Z,3.55
2023-01-19T06:37:50.679Z,6.25
2023-01-19T06:42:03.057Z,5.88
2023-01-19T06:46:15.912Z,6.20
2023-01-19T06:50:28.667Z,4.57
2023-01-19T06:54:41.110Z,5.50
2023-01-19T06:58:54.129Z,6.15
2023-01-19T07:03:08.366Z,5.32
2023-01-19T07:07:20.817Z,5.45
2023-01-19T07:11:33.527Z,6.88
2023-01-19T07:15:46.050Z,6.28
2023-01-19T07:19:58.515Z,5.10
2023-01-19T07:24:10.942Z,4.80
2023-01-19T07:28:23.362Z,5.90
2023-01-19T07:32:36.620Z,4.70
2023-01-19T07:36:59.036Z,5.47
2023-01-19T07:41:11.943Z,4.72
2023-01-19T07:45:24.339Z,5.68
2023-01-19T07:49:37.182Z,6.00
2023-01-19T07:53:52.737Z,4.93
2023-01-19T07:58:07.998Z,4.80
2023-01-19T08:02:22.604Z,5.20
2023-01-19T08:06:38.100Z,5.57
2023-01-19T08:10:52.299Z,5.50
2023-01-19T08:15:15.400Z,6.40
2023-01-19T08:19:28.338Z,5.45
2023-01-19T08:23:55.214Z,5.22
2023-01-19T08:28:09.225Z,5.50
2023-01-19T08:32:21.714Z,5.47
2023-01-19T08:36:35.099Z,5.60
2023-01-19T08:40:47.570Z,5.03
2023-01-19T08:45:03.202Z,6.70
2023-01-19T08:49:16.261Z,6.32
2023-01-19T08:53:38.729Z,5.35
2023-01-19T08:57:57.963Z,3.75
2023-01-19T09:02:12.858Z,5.82
2023-01-19T09:06:26.073Z,5.22
2023-01-19T09:10:39.887Z,8.10
2023-01-19T09:14:52.293Z,5.78
2023-01-19T09:19:04.811Z,6.13
2023-01-19T09:23:20.825Z,5.25
2023-01-19T09:27:43.352Z,3.45
2023-01-19T09:32:06.259Z,5.22
2023-01-19T09:36:18.711Z,4.78
2023-01-19T09:40:52.668Z,4.18
2023-01-19T09:45:32.231Z,8.18
2023-01-19T09:49:53.220Z,3.03
2023-01-19T09:54:42.853Z,4.10
2023-01-19T09:59:00.999Z,4.43
2023-01-19T10:03:24.916Z,3.67
2023-01-19T10:08:09.429Z,5.15
2023-01-19T10:13:03.520Z,5.22
2023-01-19T10:17:48.755Z,5.70
2023-01-19T10:22:22.002Z,4.47
2023-01-19T10:26:39.647Z,4.50
2023-01-19T10:30:55.574Z,5.32
2023-01-19T10:35:27.009Z,4.60
2023-01-19T10:39:40.071Z,3.55
2023-01-19T10:44:02.596Z,4.93
2023-01-19T10:48:15.153Z,4.35
2023-01-19T10:52:36.138Z,4.72
2023-01-19T10:56:58.714Z,4.93
2023-01-19T11:01:23.182Z,4.35
2023-01-19T11:05:36.255Z,4.28
2023-01-19T11:09:49.853Z,4.53
2023-01-19T11:14:18.425Z,4.07
2023-01-19T11:18:34.913Z,4.13
2023-01-19T11:22:48.841Z,3.58
2023-01-19T11:27:04.402Z,3.95
2023-01-19T11:31:16.812Z,3.33
2023-01-19T11:35:40.603Z,0.93
2023-01-19T11:39:57.296Z,2.67
2023-01-19T11:44:31.323Z,1.92
2023-01-19T11:48:57.420Z,3.78
2023-01-19T11:53:30.006Z,3.78
2023-01-19T11:57:54.843Z,4.80
2023-01-19T12:02:24.794Z,3.03
2023-01-19T12:06:45.590Z,2.92
2023-01-19T12:11:00.765Z,2.63
2023-01-19T12:15:36.014Z,2.45
2023-01-19T12:20:00.483Z,2.88
2023-01-19T12:24:19.384Z,3.47
2023-01-19T12:28:37.995Z,2.10
2023-01-19T12:32:53.254Z,3.55
2023-01-19T12:37:08.680Z,2.58
2023-01-19T12:41:44.420Z,4.15
2023-01-19T12:45:56.975Z,1.95
2023-01-19T12:50:19.810Z,2.72
2023-01-19T12:54:33.825Z,2.60
2023-01-19T12:58:50.684Z,2.72
2023-01-19T13:03:28.353Z,2.42
2023-01-19T13:08:02.577Z,2.70
2023-01-19T13:12:14.864Z,2.88
2023-01-19T13:16:28.194Z,2.65
2023-01-19T13:21:02.988Z,3.47
2023-01-19T13:25:29.131Z,2.45
2023-01-19T13:29:45.984Z,2.58
2023-01-19T13:34:02.391Z,2.83
2023-01-19T13:38:20.007Z,3.40
2023-01-19T13:42:39.545Z,2.63
2023-01-19T13:46:53.494Z,2.65
2023-01-19T13:51:10.839Z,2.40
2023-01-19T13:55:24.899Z,1.85
2023-01-19T13:59:43.816Z,2.70
2023-01-19T14:04:00.563Z,2.47
2023-01-19T14:08:15.862Z,2.53
2023-01-19T14:12:28.325Z,2.20
2023-01-19T14:16:41.387Z,2.20
2023-01-19T14:21:09.655Z,1.58
2023-01-19T14:25:37.078Z,1.80
2023-01-19T14:29:51.424Z,2.55
2023-01-19T14:34:03.887Z,4.05
2023-01-19T14:38:16.753Z,3.38
2023-01-19T14:42:35.710Z,4.93
2023-01-19T14:46:49.419Z,3.33
2023-01-19T14:51:05.256Z,2.65
2023-01-19T14:55:24.119Z,3.80
2023-01-19T14:59:36.581Z,2.42
2023-01-19T15:03:49.006Z,2.90
2023-01-19T15:08:03.780Z,2.60
2023-01-19T15:12:19.350Z,3.90
2023-01-19T15:16:35.454Z,3.28
2023-01-19T15:20:47.888Z,1.98
2023-01-19T15:25:07.901Z,2.30
2023-01-19T15:29:27.015Z,1.67
2023-01-19T15:33:39.455Z,2.90
2023-01-19T15:37:54.358Z,2.83
2023-01-19T15:42:15.623Z,1.88
2023-01-19T15:46:28.375Z,2.28
2023-01-19T15:50:44.447Z,2.45
2023-01-19T15:54:57.048Z,1.95
2023-01-19T15:59:09.590Z,2.42
2023-01-19T16:03:22.173Z,1.88
2023-01-19T16:07:35.509Z,2.33
2023-01-19T16:11:47.991Z,1.90
2023-01-19T16:16:16.547Z,2.60
2023-01-19T16:20:30.776Z,2.83
2023-01-19T16:24:43.198Z,1.67
2023-01-19T16:29:01.652Z,2.67
2023-01-19T16:33:14.652Z,2.00
2023-01-19T16:37:28.121Z,2.33
2023-01-19T16:41:41.186Z,3.47
2023-01-19T16:46:00.737Z,2.55
2023-01-19T16:50:13.574Z,3.10
2023-01-19T16:54:27.827Z,3.50
2023-01-19T16:58:41.217Z,2.65
2023-01-19T17:02:53.691Z,2.80
2023-01-19T17:07:06.199Z,2.78
2023-01-19T17:11:29.983Z,2.78
2023-01-19T17:15:42.464Z,2.33
2023-01-19T17:20:13.870Z,2.63
2023-01-19T17:24:26.486Z,2.85
2023-01-19T17:28:39.403Z,2.33
2023-01-19T17:32:52.117Z,3.22
2023-01-19T17:37:14.039Z,3.60
2023-01-19T17:41:28.597Z,2.70
2023-01-19T17:45:51.193Z,2.25
2023-01-19T17:50:03.958Z,2.72
2023-01-19T17:54:16.579Z,2.90
2023-01-19T17:58:31.987Z,2.53
2023-01-19T18:02:45.279Z,2.92
2023-01-19T18:06:57.980Z,2.95
2023-01-19T18:11:11.866Z,3.00
2023-01-19T18:15:24.284Z,3.00
2023-01-19T18:19:36.693Z,2.67
2023-01-19T18:23:51.022Z,2.97
2023-01-19T18:28:03.475Z,2.90
2023-01-19T18:32:16.542Z,2.75
2023-01-19T18:36:29.208Z,3.40
2023-01-19T18:40:41.774Z,3.03
2023-01-19T18:44:54.229Z,2.55
2023-01-19T18:49:16.733Z,3.22
2023-01-19T20:51:28.748Z,3.20
2023-01-19T20:55:41.160Z,3.45
2023-01-19T20:59:53.599Z,3.10
2023-01-19T21:04:06.367Z,3.42
2023-01-19T21:08:19.057Z,3.30
2023-01-19T21:12:31.500Z,3.05
2023-01-19T21:16:44.016Z,3.00
2023-01-19T21:20:58.317Z,3.35
2023-01-19T21:25:11.382Z,3.40
2023-01-19T21:29:34.134Z,3.72
2023-01-19T21:33:46.623Z,3.55
2023-01-19T21:37:59.293Z,3.85
2023-01-19T21:42:11.723Z,3.70
2023-01-19T21:46:29.999Z,3.45
2023-01-19T21:50:42.427Z,2.78
2023-01-19T21:54:54.820Z,3.00
2023-01-19T21:59:08.393Z,2.90
2023-01-19T22:03:20.866Z,3.15
2023-01-19T22:07:33.861Z,3.55
2023-01-19T22:11:51.692Z,3.03
2023-01-19T22:16:11.157Z,3.22
2023-01-19T22:20:23.567Z,3.03
2023-01-19T22:24:36.031Z,3.30
2023-01-19T22:28:51.517Z,3.08
2023-01-19T22:33:04.018Z,2.85
2023-01-19T22:37:16.868Z,3.10
2023-01-19T22:41:33.392Z,3.08
2023-01-19T22:45:45.896Z,3.15
2023-01-19T22:49:58.321Z,2.95
2023-01-19T22:54:11.193Z,3.60
2023-01-19T22:58:23.641Z,3.40
2023-01-19T23:02:36.070Z,3.30
2023-01-19T23:06:51.139Z,4.00
2023-01-19T23:11:13.850Z,3.00
2023-01-19T23:15:26.257Z,3.33
2023-01-19T23:19:38.680Z,3.33
2023-01-19T23:23:55.994Z,3.90
2023-01-19T23:28:08.645Z,3.28
2023-01-19T23:32:21.139Z,3.00
2023-01-19T23:36:37.401Z,3.42
2023-01-19T23:40:49.820Z,3.38
2023-01-19T23:45:02.321Z,2.75
2023-01-19T23:49:15.015Z,3.55
2023-01-19T23:53:27.503Z,3.88
2023-01-19T23:57:39.928Z,4.13
